createdAt,value
2022-09-11T00:04:22.331Z,11.32
2022-09-11T00:09:32.326Z,12.25
2022-09-11T00:14:36.174Z,12.32
2022-09-11T07:50:58.937Z,19.33
2022-09-11T07:56:06.466Z,18.58
2022-09-11T08:01:13.264Z,16.92
2022-09-11T08:06:22.499Z,17.25
2022-09-11T08:11:30.298Z,17.70
2022-09-11T08:16:36.250Z,17.55
2022-09-11T08:21:42.372Z,16.10
2022-09-11T08:26:49.137Z,15.25
2022-09-11T08:32:02.102Z,16.52
2022-09-11T08:37:08.908Z,16.35
2022-09-11T08:42:16.489Z,15.82
2022-09-11T08:47:25.418Z,15.02
2022-09-11T08:52:36.371Z,14.63
2022-09-11T08:57:48.101Z,13.88
2022-09-11T09:03:14.727Z,12.05
2022-09-11T09:08:37.244Z,13.43
2022-09-11T09:14:05.851Z,13.93
2022-09-11T09:19:17.106Z,14.40
2022-09-11T09:24:26.135Z,14.68
2022-09-11T09:29:38.135Z,15.23
2022-09-11T09:34:46.771Z,13.27
2022-09-11T09:39:54.994Z,13.15
2022-09-11T09:45:27.622Z,11.88
2022-09-11T09:50:35.208Z,12.32
2022-09-11T09:55:43.513Z,12.23
2022-09-11T10:00:47.266Z,10.30
2022-09-11T10:05:54.502Z,9.93
2022-09-11T10:11:01.298Z,11.50
2022-09-11T10:16:06.806Z,10.90
2022-09-11T10:21:33.529Z,10.57
2022-09-11T10:26:45.868Z,9.50
2022-09-11T10:31:51.543Z,10.20
2022-09-11T10:37:03.235Z,9.05
2022-09-11T10:42:16.700Z,8.57
2022-09-11T10:47:26.073Z,9.80
2022-09-11T10:52:31.061Z,10.00
2022-09-11T10:57:42.268Z,10.35
2022-09-11T11:02:47.762Z,8.13
2022-09-11T11:08:20.830Z,8.75
2022-09-11T11:13:45.246Z,8.45
2022-09-11T11:19:18.697Z,7.45
2022-09-11T11:24:36.572Z,6.20
2022-09-11T11:30:03.354Z,7.25
2022-09-11T11:35:21.455Z,6.72
2022-09-11T11:40:29.936Z,7.10
2022-09-11T11:45:40.481Z,6.35
2022-09-11T11:50:50.229Z,6.43
2022-09-11T11:56:11.716Z,5.85
2022-09-11T12:01:29.559Z,6.13
2022-09-11T12:06:33.245Z,5.53
2022-09-11T12:11:39.151Z,4.85
2022-09-11T12:16:44.364Z,4.68
2022-09-11T12:22:07.360Z,4.60
2022-09-11T12:27:34.645Z,5.30
2022-09-11T12:32:45.275Z,5.22
2022-09-11T12:37:55.748Z,4.80
2022-09-11T12:43:17.555Z,4.68
2022-09-11T12:48:26.053Z,4.90
2022-09-11T12:53:34.017Z,4.43
2022-09-11T12:58:40.736Z,4.97
2022-09-11T13:03:58.148Z,4.70
2022-09-11T13:09:03.813Z,4.75
2022-09-11T13:14:42.369Z,4.88
2022-09-11T13:19:47.402Z,4.97
2022-09-11T13:24:51.426Z,5.32
2022-09-11T13:29:57.612Z,4.82
2022-09-11T13:35:07.910Z,4.80
2022-09-11T13:40:20.859Z,4.55
2022-09-11T13:45:26.257Z,4.40
2022-09-11T13:50:32.112Z,4.53
2022-09-11T13:55:35.784Z,4.10
2022-09-11T14:00:41.847Z,2.97
2022-09-11T14:05:53.925Z,2.97
2022-09-11T14:11:01.170Z,2.97
2022-09-11T14:16:10.661Z,3.40
2022-09-11T14:21:20.318Z,2.60
2022-09-11T14:26:25.954Z,2.70
2022-09-11T14:31:38.621Z,3.20
2022-09-11T14:36:47.766Z,2.97
2022-09-11T14:41:51.866Z,2.55
2022-09-11T14:46:59.691Z,2.58
2022-09-11T14:52:08.003Z,2.40
2022-09-11T14:57:19.828Z,3.83
2022-09-11T15:02:26.953Z,5.32
2022-09-11T15:07:35.487Z,6.13
2022-09-11T15:12:40.932Z,7.07
2022-09-11T15:22:52.482Z,7.95
2022-09-11T15:27:56.682Z,8.02
2022-09-11T15:33:01.165Z,7.18
2022-09-11T15:38:06.644Z,8.10
2022-09-11T15:43:11.124Z,8.57
2022-09-11T15:53:21.601Z,8.70
2022-09-11T15:58:27.982Z,8.25
2022-09-11T16:03:34.513Z,8.30
2022-09-11T16:08:40.895Z,8.00
2022-09-11T16:13:50.608Z,8.02
2022-09-11T16:18:58.484Z,7.28
2022-09-11T16:24:04.364Z,5.80
2022-09-11T16:29:11.953Z,6.10
2022-09-11T16:34:20.534Z,5.35
2022-09-11T16:39:27.424Z,5.45
2022-09-11T16:44:32.833Z,5.10
2022-09-11T16:50:05.460Z,5.57
2022-09-11T17:07:36.238Z,5.97
2022-09-11T17:36:32.492Z,7.22
2022-09-11T17:41:39.841Z,6.18
2022-09-11T17:46:49.811Z,12.80
2022-09-11T17:51:59.160Z,8.15
2022-09-11T17:57:03.958Z,7.00
2022-09-11T18:02:08.959Z,7.45
2022-09-11T18:07:23.684Z,8.05
2022-09-11T18:12:35.184Z,8.45
2022-09-11T18:17:42.962Z,8.75
2022-09-11T18:22:50.523Z,9.80
2022-09-11T18:27:56.925Z,10.10
2022-09-11T18:38:55.002Z,9.73
2022-09-11T18:44:05.948Z,11.00
2022-09-11T18:49:11.078Z,11.23
2022-09-11T18:54:21.225Z,12.07
2022-09-11T18:59:27.667Z,10.63
2022-09-11T19:04:34.840Z,9.23
2022-09-11T19:09:46.021Z,10.43
2022-09-11T19:14:51.908Z,9.70
2022-09-11T19:20:01.204Z,12.10
2022-09-11T19:25:31.803Z,12.35
2022-09-11T19:30:56.424Z,15.52
2022-09-11T19:36:03.995Z,10.70
2022-09-11T19:41:21.660Z,9.13
2022-09-11T19:46:31.208Z,8.82
2022-09-11T19:51:39.215Z,10.20
2022-09-11T19:56:46.878Z,10.05
2022-09-11T20:01:52.237Z,9.27
2022-09-11T20:06:56.351Z,10.07
2022-09-11T20:12:02.504Z,11.50
2022-09-11T20:17:09.337Z,10.27
2022-09-11T20:22:31.099Z,10.45
2022-09-11T20:27:37.417Z,10.88
2022-09-11T20:32:46.781Z,10.15
2022-09-11T20:37:52.922Z,10.13
2022-09-11T20:43:00.904Z,10.85
2022-09-11T20:48:06.397Z,10.98
2022-09-11T20:53:14.937Z,10.30
2022-09-11T20:58:25.547Z,10.25
2022-09-11T21:03:35.470Z,9.43
2022-09-11T21:09:22.141Z,8.98
2022-09-11T21:14:38.240Z,8.80
2022-09-11T21:19:57.403Z,7.55
2022-09-11T21:38:25.454Z,5.45
2022-09-11T21:43:38.548Z,5.25
2022-09-11T21:48:57.587Z,5.47
2022-09-11T21:54:46.362Z,4.40
2022-09-11T22:05:33.465Z,5.10
2022-09-11T22:10:55.987Z,4.93
2022-09-11T22:16:15.132Z,4.50
2022-09-11T22:21:39.029Z,4.68
2022-09-11T22:27:25.321Z,5.10
2022-09-11T22:32:43.376Z,5.38
2022-09-11T22:43:18.016Z,6.20
2022-09-11T22:48:32.951Z,5.22
2022-09-11T22:53:43.847Z,5.00
2022-09-11T23:04:12.220Z,5.40
